createdAt,value
2023-04-14T03:00:40.179Z,9.06
2023-04-14T03:03:11.016Z,9.05
2023-04-14T03:05:44.808Z,9.05
2023-04-14T03:08:17.002Z,9.04
2023-04-14T03:10:49.468Z,9.04
2023-04-14T03:13:22.811Z,9.03
2023-04-14T03:15:52.570Z,9.02
2023-04-14T03:18:22.590Z,9.00
2023-04-14T03:20:53.888Z,8.98
2023-04-14T03:23:26.043Z,8.94
2023-04-14T03:26:05.041Z,8.92
2023-04-14T03:28:37.633Z,8.94
2023-04-14T03:31:09.760Z,8.97
2023-04-14T03:33:46.964Z,8.99
2023-04-14T03:36:18.796Z,8.99
2023-04-14T03:38:50.340Z,8.97
2023-04-14T03:41:20.562Z,8.96
2023-04-14T03:43:55.029Z,9.00
2023-04-14T03:46:29.211Z,9.01
2023-04-14T03:49:12.009Z,9.03
2023-04-14T03:51:42.274Z,9.05
2023-04-14T03:54:13.034Z,9.07
2023-04-14T03:56:46.399Z,9.08
2023-04-14T03:59:18.054Z,9.10
2023-04-14T04:01:48.860Z,9.16
2023-04-14T04:04:18.363Z,9.21
2023-04-14T04:06:50.823Z,9.22
2023-04-14T04:09:21.307Z,9.25
2023-04-14T04:11:50.034Z,9.29
2023-04-14T04:14:21.381Z,9.32
2023-04-14T04:16:51.901Z,9.38
2023-04-14T04:19:24.628Z,9.42
2023-04-14T04:21:56.854Z,9.45
2023-04-14T04:24:28.410Z,9.46
2023-04-14T04:26:57.117Z,9.45
2023-04-14T04:29:27.990Z,9.48
2023-04-14T04:31:57.604Z,9.53
2023-04-14T04:34:27.604Z,9.59
2023-04-14T04:36:56.172Z,9.66
2023-04-14T04:39:24.605Z,9.69
2023-04-14T04:42:04.465Z,9.68
2023-04-14T04:44:34.212Z,9.73
2023-04-14T04:47:03.916Z,9.75
2023-04-14T04:49:32.886Z,9.77
2023-04-14T04:52:04.995Z,9.81
2023-04-14T04:54:33.536Z,9.87
2023-04-14T04:57:02.481Z,9.91
2023-04-14T04:59:31.574Z,9.97
2023-04-14T05:02:01.118Z,9.99
2023-04-14T05:04:30.540Z,10.05
2023-04-14T05:06:59.322Z,10.11
2023-04-14T05:09:28.393Z,10.22
2023-04-14T05:11:57.844Z,10.31
2023-04-14T05:14:27.664Z,10.40
2023-04-14T05:16:57.658Z,10.48
2023-04-14T05:19:26.904Z,10.61
2023-04-14T05:21:55.967Z,10.73
2023-04-14T05:24:25.091Z,10.85
2023-04-14T05:27:12.598Z,10.95
2023-04-14T05:29:43.660Z,11.02
2023-04-14T05:32:13.925Z,11.04
2023-04-14T05:34:43.073Z,11.05
2023-04-14T05:37:12.123Z,11.13
2023-04-14T05:39:40.292Z,11.21
2023-04-14T05:42:08.909Z,11.27
2023-04-14T05:44:37.966Z,11.34
2023-04-14T05:47:06.629Z,11.40
2023-04-14T05:49:35.737Z,11.41
2023-04-14T05:52:04.754Z,11.39
2023-04-14T05:54:33.762Z,11.41
2023-04-14T05:57:02.866Z,11.43
2023-04-14T05:59:32.223Z,11.46
2023-04-14T06:02:06.312Z,11.47
2023-04-14T06:04:35.458Z,11.49
2023-04-14T06:07:04.719Z,11.48
2023-04-14T06:09:33.770Z,11.49
2023-04-14T06:12:03.119Z,11.49
2023-04-14T06:14:32.298Z,11.53
2023-04-14T06:17:01.713Z,11.59
2023-04-14T06:19:30.656Z,11.61
2023-04-14T06:21:59.700Z,11.61
2023-04-14T06:24:28.751Z,11.63
2023-04-14T06:26:59.139Z,11.67
2023-04-14T06:29:28.241Z,11.71
2023-04-14T06:31:58.656Z,11.76
2023-04-14T06:34:27.623Z,11.79
2023-04-14T06:37:01.930Z,11.84
2023-04-14T06:39:30.820Z,11.82
2023-04-14T06:42:00.321Z,11.83
2023-04-14T06:44:29.334Z,11.84
2023-04-14T06:46:58.574Z,11.85
2023-04-14T06:49:27.704Z,11.83
2023-04-14T06:51:56.629Z,11.83
2023-04-14T06:54:25.837Z,11.93
2023-04-14T06:56:55.391Z,12.02
2023-04-14T06:59:28.441Z,12.07
2023-04-14T07:01:59.381Z,12.10
2023-04-14T07:04:28.585Z,12.13
2023-04-14T07:07:01.313Z,12.13
2023-04-14T07:09:29.980Z,12.17
2023-04-14T07:12:00.357Z,12.25
2023-04-14T07:14:31.730Z,12.31
2023-04-14T07:17:00.320Z,12.32
2023-04-14T07:19:28.806Z,12.36
2023-04-14T07:21:57.843Z,12.46
2023-04-14T07:24:26.250Z,12.54
2023-04-14T07:26:54.410Z,12.61
2023-04-14T07:29:22.590Z,12.67
2023-04-14T07:31:51.210Z,12.79
2023-04-14T07:34:19.985Z,12.94
2023-04-14T07:36:48.489Z,13.00
2023-04-14T07:39:17.253Z,13.03
2023-04-14T07:41:45.728Z,13.09
2023-04-14T07:44:14.058Z,13.14
2023-04-14T07:46:42.600Z,13.21
2023-04-14T07:49:11.800Z,13.31
2023-04-14T07:51:40.210Z,13.46
2023-04-14T07:54:09.000Z,13.64
2023-04-14T07:56:38.141Z,13.83
2023-04-14T07:59:06.524Z,13.99
2023-04-14T08:01:35.218Z,14.15
2023-04-14T08:04:05.008Z,14.22
2023-04-14T08:06:34.446Z,14.32
2023-04-14T08:09:02.941Z,14.37
2023-04-14T08:11:31.633Z,14.31
2023-04-14T08:14:00.309Z,14.32
2023-04-14T08:16:29.663Z,14.47
2023-04-14T08:18:58.414Z,14.66
2023-04-14T08:21:28.588Z,14.74
2023-04-14T08:23:59.494Z,14.79
2023-04-14T08:26:27.873Z,14.82
2023-04-14T08:28:57.551Z,14.81
2023-04-14T08:31:26.614Z,14.79
2023-04-14T08:33:54.957Z,14.70
2023-04-14T08:36:23.574Z,14.60
2023-04-14T08:38:53.391Z,14.57
2023-04-14T08:41:22.831Z,14.60
2023-04-14T08:43:51.429Z,14.79
2023-04-14T08:46:21.533Z,14.96
2023-04-14T08:48:53.861Z,15.15
2023-04-14T08:51:42.824Z,15.27
2023-04-14T08:54:14.774Z,15.28
2023-04-14T08:56:44.262Z,15.26
2023-04-14T08:59:14.039Z,15.25
2023-04-14T09:01:43.364Z,15.28
2023-04-14T09:04:15.218Z,15.34
2023-04-14T09:06:44.018Z,15.39
2023-04-14T09:09:13.533Z,15.42
2023-04-14T09:11:42.462Z,15.40
2023-04-14T09:14:13.868Z,15.40
2023-04-14T09:16:42.268Z,15.43
2023-04-14T09:19:11.893Z,15.40
2023-04-14T09:21:52.433Z,15.28
2023-04-14T09:24:32.494Z,15.21
2023-04-14T09:27:08.306Z,15.21
2023-04-14T09:29:38.270Z,15.33
2023-04-14T09:32:07.703Z,15.40
2023-04-14T09:34:36.898Z,15.39
2023-04-14T09:37:07.106Z,15.38
2023-04-14T09:39:37.254Z,15.39
2023-04-14T09:42:06.287Z,15.44
2023-04-14T09:44:34.933Z,15.46
2023-04-14T09:47:08.831Z,15.47
2023-04-14T09:49:37.457Z,15.49
2023-04-14T09:52:08.751Z,15.46
2023-04-14T09:54:41.022Z,15.45
2023-04-14T09:57:10.422Z,15.51
2023-04-14T09:59:40.920Z,15.62
2023-04-14T10:02:10.747Z,15.73
2023-04-14T10:04:40.119Z,15.82
2023-04-14T10:07:09.487Z,15.82
2023-04-14T10:09:38.863Z,15.92
2023-04-14T10:12:09.830Z,16.00
2023-04-14T10:14:40.458Z,16.00
2023-04-14T10:17:09.719Z,16.00
2023-04-14T10:19:39.396Z,15.95
2023-04-14T10:22:07.587Z,15.93
2023-04-14T10:24:37.140Z,15.86
2023-04-14T10:27:06.772Z,15.81
2023-04-14T10:29:35.925Z,15.74
2023-04-14T10:32:09.993Z,15.67
2023-04-14T10:34:42.666Z,15.66
2023-04-14T10:37:15.921Z,15.69
2023-04-14T10:39:55.116Z,15.76
2023-04-14T10:42:24.776Z,15.86
2023-04-14T10:45:06.342Z,15.96
2023-04-14T10:47:36.805Z,15.97
2023-04-14T10:50:14.030Z,15.95
2023-04-14T10:53:04.977Z,15.99
2023-04-14T10:55:51.746Z,15.97
2023-04-14T10:58:22.665Z,15.91
2023-04-14T11:00:52.280Z,15.92
2023-04-14T11:03:22.186Z,15.97
2023-04-14T11:05:52.710Z,15.97
2023-04-14T11:08:26.084Z,16.03
2023-04-14T11:11:02.469Z,16.13
2023-04-14T11:13:32.598Z,16.23
2023-04-14T11:16:05.049Z,16.34
2023-04-14T11:18:34.457Z,16.42
2023-04-14T11:21:07.054Z,16.49
2023-04-14T11:23:36.843Z,16.49
2023-04-14T11:26:06.626Z,16.42
2023-04-14T11:28:36.638Z,16.39
2023-04-14T11:31:06.773Z,16.46
2023-04-14T11:33:37.916Z,16.60
2023-04-14T11:36:07.821Z,16.70
2023-04-14T11:38:40.649Z,16.81
2023-04-14T11:41:09.680Z,16.94
2023-04-14T11:43:38.773Z,16.94
2023-04-14T11:46:09.128Z,16.84
2023-04-14T11:48:37.451Z,16.75
2023-04-14T11:51:06.491Z,16.69
2023-04-14T11:53:36.948Z,16.67
2023-04-14T11:56:09.556Z,16.74
2023-04-14T11:58:38.190Z,16.85
2023-04-14T12:01:07.589Z,16.92
2023-04-14T12:03:37.350Z,16.90
2023-04-14T12:06:06.679Z,16.79
2023-04-14T12:08:37.015Z,16.74
2023-04-14T12:11:15.910Z,16.71
2023-04-14T12:13:47.374Z,16.67
2023-04-14T12:16:17.964Z,16.61
2023-04-14T12:18:47.099Z,16.56
2023-04-14T12:21:20.266Z,16.50
2023-04-14T12:23:49.595Z,16.46
2023-04-14T12:26:20.475Z,16.41
2023-04-14T12:28:55.902Z,16.36
2023-04-14T12:31:30.695Z,16.36
2023-04-14T12:34:04.283Z,16.38
2023-04-14T12:36:48.717Z,16.42
2023-04-14T12:39:20.140Z,16.47
2023-04-14T12:41:49.580Z,16.57
2023-04-14T12:44:21.705Z,16.71
2023-04-14T12:46:54.424Z,16.87
2023-04-14T12:49:29.638Z,17.01
2023-04-14T12:51:58.793Z,17.06
2023-04-14T12:54:27.896Z,16.95
2023-04-14T12:56:57.698Z,16.82
2023-04-14T12:59:27.197Z,16.73
2023-04-14T13:01:56.501Z,16.65
2023-04-14T13:04:25.743Z,16.59
2023-04-14T13:06:54.596Z,16.56
2023-04-14T13:09:23.025Z,16.58
2023-04-14T13:11:51.582Z,16.59
2023-04-14T13:14:20.514Z,16.64
2023-04-14T13:16:49.531Z,16.72
2023-04-14T13:19:18.933Z,16.84
2023-04-14T13:21:47.776Z,16.94
2023-04-14T13:24:16.749Z,16.99
2023-04-14T13:26:46.775Z,17.10
2023-04-14T13:29:15.985Z,17.24
2023-04-14T13:31:45.217Z,17.29
2023-04-14T13:34:14.661Z,17.24
2023-04-14T13:36:43.689Z,17.19
2023-04-14T13:39:13.403Z,17.17
2023-04-14T13:41:41.656Z,17.12
2023-04-14T13:44:10.401Z,17.06
2023-04-14T13:46:41.415Z,17.06
2023-04-14T13:49:10.887Z,17.07
2023-04-14T13:51:40.253Z,17.03
2023-04-14T13:54:09.133Z,17.01
2023-04-14T13:56:38.609Z,17.00
2023-04-14T13:59:08.148Z,17.00
2023-04-14T14:01:36.685Z,17.02
2023-04-14T14:04:05.898Z,16.99
2023-04-14T14:06:35.115Z,16.96
2023-04-14T14:09:06.422Z,16.93
2023-04-14T14:11:35.760Z,17.00
2023-04-14T14:14:04.907Z,17.10
2023-04-14T14:16:37.210Z,17.19
2023-04-14T14:19:08.569Z,17.34
2023-04-14T14:21:37.798Z,17.47
2023-04-14T14:24:06.776Z,17.55
2023-04-14T14:26:36.508Z,17.56
2023-04-14T14:29:05.642Z,17.53
2023-04-14T14:31:35.404Z,17.48
2023-04-14T14:34:04.537Z,17.41
2023-04-14T14:36:33.846Z,17.39
2023-04-14T14:39:02.777Z,17.37
2023-04-14T14:41:31.829Z,17.35
2023-04-14T14:44:01.494Z,17.33
2023-04-14T14:46:31.915Z,17.29
2023-04-14T14:49:00.690Z,17.18
2023-04-14T14:51:29.587Z,17.05
2023-04-14T14:54:08.859Z,16.88
2023-04-14T14:56:38.784Z,16.72
2023-04-14T14:59:09.046Z,16.59
2023-04-14T15:01:37.957Z,16.50
2023-04-14T15:04:06.797Z,16.39
2023-04-14T15:06:36.575Z,16.33
2023-04-14T15:09:06.006Z,16.29
2023-04-14T15:11:34.227Z,16.24
2023-04-14T15:14:02.890Z,16.23
2023-04-14T15:16:31.467Z,16.19
2023-04-14T15:19:01.076Z,16.15
2023-04-14T15:21:30.789Z,16.09
2023-04-14T15:24:00.104Z,16.04
2023-04-14T15:26:29.179Z,16.03
2023-04-14T15:28:57.441Z,16.01
2023-04-14T15:31:26.214Z,16.02
2023-04-14T15:34:00.862Z,16.08
2023-04-14T15:36:29.768Z,16.14
2023-04-14T15:38:58.810Z,16.14
2023-04-14T15:41:27.962Z,16.05
2023-04-14T15:43:57.213Z,15.94
2023-04-14T15:46:26.386Z,15.84
2023-04-14T15:48:56.196Z,15.78
2023-04-14T15:51:25.185Z,15.73
2023-04-14T15:53:53.579Z,15.70
2023-04-14T15:56:23.675Z,15.65
2023-04-14T15:58:52.424Z,15.63
2023-04-14T16:01:21.263Z,15.62
2023-04-14T16:03:52.387Z,15.64
2023-04-14T16:06:21.566Z,15.66
2023-04-14T16:08:50.230Z,15.66
2023-04-14T16:11:21.829Z,15.65
2023-04-14T16:13:50.288Z,15.64
2023-04-14T16:16:18.964Z,15.62
2023-04-14T16:18:47.969Z,15.61
2023-04-14T16:21:16.807Z,15.57
2023-04-14T16:23:45.311Z,15.55
2023-04-14T16:26:14.260Z,15.49
2023-04-14T16:28:43.201Z,15.46
2023-04-14T16:31:11.790Z,15.45
2023-04-14T16:33:40.655Z,15.40
2023-04-14T16:36:09.565Z,15.34
2023-04-14T16:38:39.781Z,15.26
2023-04-14T16:41:08.880Z,15.19
2023-04-14T16:43:37.199Z,15.15
2023-04-14T16:46:06.564Z,15.12
2023-04-14T16:48:37.199Z,15.06
2023-04-14T16:51:08.778Z,14.99
2023-04-14T16:53:38.994Z,14.91
2023-04-14T16:56:09.303Z,14.81
2023-04-14T16:58:38.413Z,14.71
2023-04-14T17:01:07.499Z,14.62
2023-04-14T17:03:37.157Z,14.56
2023-04-14T17:06:06.654Z,14.46
2023-04-14T17:08:34.941Z,14.38
2023-04-14T17:11:03.943Z,14.30
2023-04-14T17:13:32.276Z,14.23
2023-04-14T17:16:08.307Z,14.16
2023-04-14T17:18:39.077Z,14.08
2023-04-14T17:21:07.776Z,14.00
2023-04-14T17:23:37.603Z,13.91
2023-04-14T17:26:06.110Z,13.87
2023-04-14T17:28:36.399Z,13.81
2023-04-14T17:31:10.791Z,13.75
2023-04-14T17:33:43.329Z,13.67
2023-04-14T17:36:15.082Z,13.58
2023-04-14T17:38:43.957Z,13.50
2023-04-14T17:41:12.988Z,13.44
2023-04-14T17:43:42.320Z,13.37
2023-04-14T17:46:12.331Z,13.33
2023-04-14T17:48:41.203Z,13.30
2023-04-14T17:51:10.784Z,13.24
2023-04-14T17:53:39.143Z,13.20
2023-04-14T17:56:08.046Z,13.14
2023-04-14T17:58:36.809Z,13.10
2023-04-14T18:01:05.726Z,13.06
2023-04-14T18:03:36.015Z,13.01
2023-04-14T18:06:05.046Z,12.97
2023-04-14T18:08:34.619Z,12.92
2023-04-14T18:11:03.479Z,12.87
2023-04-14T18:13:32.235Z,12.79
2023-04-14T18:16:01.160Z,12.75
2023-04-14T18:18:30.346Z,12.72
2023-04-14T18:20:59.521Z,12.69
2023-04-14T18:23:29.026Z,12.64
2023-04-14T18:28:34.690Z,12.56
2023-04-14T18:31:05.264Z,12.57
2023-04-14T18:33:34.344Z,12.57
2023-04-14T18:36:03.540Z,12.57
2023-04-14T18:38:32.406Z,12.55
2023-04-14T18:41:01.789Z,12.51
2023-04-14T18:43:30.592Z,12.49
2023-04-14T18:46:00.028Z,12.46
2023-04-14T18:48:29.004Z,12.42
2023-04-14T18:51:00.233Z,12.40
2023-04-14T18:53:29.004Z,12.37
2023-04-14T18:55:57.837Z,12.36
2023-04-14T18:58:26.075Z,12.35
2023-04-14T19:00:54.559Z,12.32
2023-04-14T19:03:23.890Z,12.30
2023-04-14T19:05:53.286Z,12.27
2023-04-14T19:08:22.724Z,12.28
2023-04-14T19:10:51.845Z,12.27
2023-04-14T19:13:20.014Z,12.25
2023-04-14T19:15:49.214Z,12.23
2023-04-14T19:18:17.558Z,12.17
2023-04-14T19:20:47.783Z,12.17
2023-04-14T19:23:16.147Z,12.15
2023-04-14T19:25:44.661Z,12.14
2023-04-14T19:28:16.752Z,12.13
2023-04-14T19:30:46.064Z,12.15
2023-04-14T19:33:16.503Z,12.13
2023-04-14T19:35:45.433Z,12.12
2023-04-14T19:38:13.937Z,12.14
2023-04-14T19:40:49.381Z,12.16
2023-04-14T19:43:18.968Z,12.20
2023-04-14T19:45:51.754Z,12.24
2023-04-14T19:48:23.863Z,12.28
2023-04-14T19:50:55.014Z,12.31
2023-04-14T19:53:24.708Z,12.35
2023-04-14T19:55:55.974Z,12.38
2023-04-14T19:58:27.170Z,12.40
2023-04-14T20:00:58.980Z,12.41
2023-04-14T20:03:27.649Z,12.43
2023-04-14T20:05:56.868Z,12.49
2023-04-14T20:08:27.735Z,12.54
2023-04-14T20:10:56.099Z,12.55
2023-04-14T20:13:24.665Z,12.56
2023-04-14T20:15:55.241Z,12.54
2023-04-14T20:18:23.961Z,12.55
2023-04-14T20:20:52.842Z,12.53
2023-04-14T20:23:21.294Z,12.54
2023-04-14T20:25:50.208Z,12.56
2023-04-14T20:28:20.312Z,12.56
2023-04-14T20:30:51.277Z,12.58
2023-04-14T20:33:21.589Z,12.61
2023-04-14T20:35:51.789Z,12.62
2023-04-14T20:38:20.831Z,12.59
2023-04-14T20:40:51.669Z,12.58
2023-04-14T20:43:19.944Z,12.58
2023-04-14T20:45:50.071Z,12.59
2023-04-14T20:48:18.632Z,12.60
2023-04-14T20:50:49.796Z,12.60
2023-04-14T20:53:20.307Z,12.59
2023-04-14T20:55:49.435Z,12.58
2023-04-14T20:58:18.580Z,12.60
2023-04-14T21:00:46.850Z,12.58
2023-04-14T21:03:15.219Z,12.61
2023-04-14T21:05:43.701Z,12.59
2023-04-14T21:08:12.729Z,12.58
2023-04-14T21:11:14.664Z,12.59
2023-04-14T21:15:40.240Z,12.58
2023-04-14T21:16:19.186Z,12.50
2023-04-14T21:18:47.481Z,12.47
2023-04-14T21:21:16.384Z,12.43
2023-04-14T21:23:45.254Z,12.41
2023-04-14T21:26:13.470Z,12.43
2023-04-14T21:28:42.200Z,12.44
2023-04-14T21:31:11.425Z,12.47
2023-04-14T21:33:41.843Z,12.51
2023-04-14T21:36:11.123Z,12.52
2023-04-14T21:38:40.129Z,12.50
2023-04-14T21:41:08.911Z,12.51
2023-04-14T21:43:41.516Z,12.50
2023-04-14T21:46:10.200Z,12.47
2023-04-14T21:48:38.723Z,12.43
2023-04-14T21:51:07.989Z,12.37
2023-04-14T21:53:39.230Z,12.31
2023-04-14T21:56:10.175Z,12.27
2023-04-14T21:58:40.965Z,12.23
2023-04-14T22:01:13.200Z,12.15
2023-04-14T22:03:42.427Z,12.10
2023-04-14T22:06:11.749Z,12.07
2023-04-14T22:08:41.208Z,12.04
2023-04-14T22:11:09.847Z,12.03
2023-04-14T22:13:38.960Z,11.99
2023-04-14T22:16:08.109Z,11.92
2023-04-14T22:18:39.099Z,11.86
2023-04-14T22:21:10.164Z,11.81
2023-04-14T22:23:44.122Z,11.76
2023-04-14T22:26:13.536Z,11.72
2023-04-14T22:28:41.755Z,11.72
2023-04-14T22:31:10.811Z,11.66
2023-04-14T22:33:39.752Z,11.58
2023-04-14T22:36:09.937Z,11.54
2023-04-14T22:38:39.403Z,11.52
2023-04-14T22:41:08.378Z,11.48
2023-04-14T22:43:37.112Z,11.46
2023-04-14T22:46:06.049Z,11.43
2023-04-14T22:48:34.386Z,11.38
2023-04-14T22:51:03.119Z,11.36
2023-04-14T22:53:32.340Z,11.37
2023-04-14T22:56:01.670Z,11.33
2023-04-14T22:58:39.781Z,11.28
2023-04-14T23:01:19.226Z,11.28
2023-04-14T23:03:59.861Z,11.24
2023-04-14T23:06:28.767Z,11.24
2023-04-14T23:08:58.355Z,11.20
2023-04-14T23:11:27.818Z,11.16
2023-04-14T23:14:04.316Z,11.13
2023-04-14T23:16:32.989Z,11.12
2023-04-14T23:19:03.113Z,11.09
2023-04-14T23:21:32.412Z,11.09
2023-04-14T23:24:01.561Z,11.07
2023-04-14T23:26:31.700Z,11.05
2023-04-14T23:29:00.881Z,11.03
2023-04-14T23:31:30.191Z,11.01
2023-04-14T23:33:59.000Z,10.98
2023-04-14T23:36:27.834Z,10.98
2023-04-14T23:38:56.717Z,11.00
2023-04-14T23:41:26.940Z,11.03
2023-04-14T23:43:55.646Z,11.06
2023-04-14T23:46:24.790Z,11.05
2023-04-14T23:48:53.504Z,11.07
2023-04-14T23:51:24.595Z,11.08
2023-04-14T23:53:53.737Z,11.09
2023-04-14T23:56:23.248Z,11.13
2023-04-14T23:58:52.447Z,11.16
